• Join FlightAware (Why Join?)
  • Login
  • US Flag 
Rudolph Flight #1: Arrived! 
09:52PM EST


 

Airport Tracker/Info


-or-


 

Live Flight TrackerFlight Track Log ✈ EJA922 ✈ 23-Jun-2014 ✈ KHPN - KAPF

Flight Track Log - Related Links

Times and Time Zones

All times are in EDT time to prevent confusion due to time zone crossing. See the EJA922 flight status page for this flight to view local times or setup timezone preferences in your user account.

Time Position Orientation Groundspeed Altitude Reporting Facility
EDT Latitude Longitude Course Direction KTS MPH feet Rate Location/Type
07:56AM 41.1000 -73.7333 270° West 202 232 1,900  Level New York TRACON
07:57AM 41.1000 -73.8167 270° West 214 246 5,000 2,880 Climbing New York TRACON
07:58AM 41.0833 -73.9000 255° West 247 284 7,700 2,520 Climbing New York TRACON
07:59AM 41.0500 -73.9833 242° Southwest 284 327 10,100 1,380 Climbing New York TRACON
08:00AM 40.9833 -74.0833 229° Southwest 375 432 10,500 1,020 Climbing New York TRACON
08:01AM 40.9167 -74.1833 229° Southwest 396 456 12,200 1,800 Climbing New York TRACON
08:02AM 40.8333 -74.3000 227° Southwest 405 466 14,200 1,860 Climbing New York TRACON
08:02AM 40.7917 -74.3892 238° Southwest 415 478 15,200 1,680 Climbing New York Center
08:03AM 40.7283 -74.4844 229° Southwest 415 478 17,000 1,500 Climbing New York Center
08:04AM 40.6622 -74.5928 231° Southwest 420 483 18,300 1,380 Climbing New York Center
08:05AM 40.5811 -74.7194 230° Southwest 420 483 19,800 1,500 Climbing New York Center
08:06AM 40.5061 -74.8408 231° Southwest 420 483 21,400 1,560 Climbing New York Center
08:07AM 40.4289 -74.9644 231° Southwest 425 489 23,000 1,560 Climbing New York Center
08:08AM 40.3475 -75.0792 227° Southwest 435 501 24,500 1,320 Climbing New York Center
08:09AM 40.2617 -75.1989 227° Southwest 445 512 25,700 1,200 Climbing New York Center
08:10AM 40.1758 -75.3186 227° Southwest 452 520 26,900 1,020 Climbing New York Center
08:11AM 40.0878 -75.4431 227° Southwest 457 526 27,800 1,020 Climbing New York Center
08:12AM 39.9972 -75.5697 227° Southwest 473 544 29,000 1,080 Climbing New York Center
08:13AM 39.9064 -75.6989 228° Southwest 483 556 30,000 960 Climbing New York Center
08:14AM 39.8261 -75.8228 230° Southwest 496 571 31,000 1,260 Climbing New York Center
08:15AM 39.7408 -75.9600 231° Southwest 496 571 32,600 1,740 Climbing New York Center
08:17AM 39.5975 -76.1814 230° Southwest 469 540 35,400 1,680 Climbing Washington Center
08:18AM 39.5156 -76.3153 232° Southwest 475 547 37,000 1,320 Climbing Washington Center
08:19AM 39.4231 -76.4511 229° Southwest 475 547 38,100 1,080 Climbing Washington Center
08:20AM 39.3344 -76.5897 230° Southwest 475 547 39,200 960 Climbing Washington Center
08:21AM 39.2456 -76.7278 230° Southwest 506 582 40,000 360 Climbing Washington Center
08:22AM 39.1525 -76.8736 231° Southwest 516 594 40,000  Level Washington Center
08:23AM 39.0592 -77.0164 230° Southwest 522 601 40,000  Level Washington Center
08:24AM 38.9492 -77.1450 222° Southwest 527 606 40,000  Level Washington Center
08:25AM 38.8478 -77.2522 219° Southwest 527 606 40,000  Level Washington Center
08:26AM 38.7333 -77.3747 220° Southwest 533 613 40,000  Level Washington Center
08:27AM 38.6211 -77.4969 220° Southwest 533 613 40,000  Level Washington Center
08:28AM 38.5106 -77.6214 221° Southwest 533 613 40,000  Level Washington Center
08:29AM 38.3958 -77.7456 220° Southwest 538 619 40,000  Level Washington Center
08:30AM 38.2811 -77.8664 220° Southwest 538 619 40,000  Level Washington Center
08:31AM 38.1681 -77.9897 221° Southwest 543 625 40,000  Level Washington Center
08:32AM 38.0550 -78.1128 221° Southwest 543 625 40,000  Level Washington Center
08:33AM 37.9314 -78.2378 219° Southwest 532 612 40,000  Level Washington Center
08:34AM 37.8292 -78.3339 217° Southwest 532 612 40,000  Level Washington Center
08:35AM 37.7097 -78.4478 217° Southwest 527 606 40,000  Level Washington Center
08:36AM 37.5922 -78.5561 216° Southwest 527 606 40,000  Level Washington Center
08:37AM 37.4725 -78.6692 217° Southwest 533 613 40,000  Level Washington Center
08:38AM 37.3531 -78.7767 216° Southwest 533 613 40,000  Level Washington Center
08:39AM 37.2331 -78.8892 217° Southwest 538 619 40,000  Level Washington Center
08:40AM 37.1133 -78.9986 216° Southwest 538 619 40,000  Level Washington Center
08:41AM 36.9931 -79.1103 217° Southwest 538 619 40,000  Level Washington Center
08:42AM 36.8731 -79.2217 217° Southwest 538 619 40,000  Level Washington Center
08:43AM 36.7550 -79.3303 216° Southwest 533 613 40,000  Level Washington Center
08:44AM 36.6367 -79.4383 216° Southwest 533 613 40,000  Level Washington Center
08:46AM 36.3667 -79.6814 216° Southwest 528 608 40,000  Level Atlanta Center
08:47AM 36.2475 -79.7908 217° Southwest 528 608 40,000  Level Atlanta Center
08:48AM 36.1261 -79.8975 215° Southwest 534 615 40,000  Level Atlanta Center
08:49AM 36.0022 -79.9961 213° Southwest 534 615 40,000  Level Atlanta Center
08:50AM 35.8667 -80.0644 202° Southwest 528 608 40,000  Level Atlanta Center
08:51AM 35.7292 -80.1350 203° Southwest 534 615 40,000  Level Atlanta Center
08:52AM 35.5792 -80.2111 202° Southwest 534 615 40,000  Level Atlanta Center
08:53AM 35.4436 -80.2786 202° Southwest 529 609 40,000  Level Atlanta Center
08:54AM 35.3100 -80.3433 202° Southwest 529 609 40,000  Level Atlanta Center
08:55AM 35.1744 -80.4103 202° Southwest 529 609 40,000  Level Atlanta Center
08:56AM 35.0408 -80.4794 203° Southwest 529 609 40,000  Level Atlanta Center
08:57AM 34.8953 -80.5489 201° Southwest 526 605 40,000  Level Jacksonville Center
08:58AM 34.7797 -80.6103 204° Southwest 518 596 40,000  Level Jacksonville Center
08:59AM 34.6472 -80.6742 202° Southwest 512 589 40,000  Level Jacksonville Center
09:00AM 34.5086 -80.7408 202° Southwest 518 596 40,000  Level Jacksonville Center
09:01AM 34.3761 -80.8019 201° Southwest 523 602 40,000  Level Jacksonville Center
09:02AM 34.2481 -80.8703 204° Southwest 511 588 40,000  Level Jacksonville Center
09:03AM 34.1133 -80.9336 201° Southwest 511 588 40,000  Level Jacksonville Center
09:04AM 33.9808 -80.9992 202° Southwest 511 588 40,000  Level Jacksonville Center
09:05AM 33.8481 -81.0597 201° Southwest 511 588 40,000  Level Jacksonville Center
09:06AM 33.7178 -81.1297 204° Southwest 511 588 40,000  Level Jacksonville Center
09:07AM 33.5850 -81.1922 201° Southwest 511 588 40,000  Level Jacksonville Center
09:08AM 33.4544 -81.2569 202° Southwest 511 588 40,000  Level Jacksonville Center
09:09AM 33.3236 -81.3214 202° Southwest 511 588 40,000  Level Jacksonville Center
09:10AM 33.1931 -81.3858 202° Southwest 516 594 40,000  Level Jacksonville Center
09:11AM 33.0622 -81.4475 202° Southwest 516 594 40,000  Level Jacksonville Center
09:12AM 32.9336 -81.5114 203° Southwest 516 594 40,000  Level Jacksonville Center
09:13AM 32.8028 -81.5728 202° Southwest 516 594 40,000  Level Jacksonville Center
09:14AM 32.6636 -81.6414 203° Southwest 497 572 40,000  Level Jacksonville Center
09:15AM 32.5472 -81.6972 202° Southwest 503 579 40,000  Level Jacksonville Center
09:16AM 32.4058 -81.7681 203° Southwest 498 573 40,000  Level Jacksonville Center
09:17AM 32.2747 -81.8286 201° Southwest 503 579 40,000  Level Jacksonville Center
09:18AM 32.1439 -81.8914 202° Southwest 509 586 40,000  Level Jacksonville Center
09:19AM 32.0128 -81.9492 200° South 509 586 40,000  Level Jacksonville Center
09:20AM 31.8878 -81.9775 191° South 502 578 40,000  Level Jacksonville Center
09:21AM 31.7353 -81.9911 184° South 503 579 40,000  Level Jacksonville Center
09:22AM 31.5956 -82.0047 185° South 508 585 40,000  Level Jacksonville Center
09:23AM 31.4683 -82.0158 184° South 514 592 40,000  Level Jacksonville Center
09:24AM 31.3264 -82.0292 185° South 514 592 40,000  Level Jacksonville Center
09:25AM 31.1844 -82.0450 185° South 514 592 40,000  Level Jacksonville Center
09:26AM 31.0425 -82.0583 185° South 519 597 40,000  Level Jacksonville Center
09:27AM 30.9006 -82.0694 184° South 519 597 40,000  Level Jacksonville Center
09:28AM 30.7608 -82.0803 184° South 513 590 40,000  Level Jacksonville Center
09:29AM 30.6253 -82.0958 186° South 513 590 40,000  Level Jacksonville Center
09:30AM 30.4708 -82.1044 183° South 506 582 40,000  Level Jacksonville Center
09:31AM 30.3289 -82.1153 184° South 511 588 40,000  Level Jacksonville Center
09:32AM 30.1892 -82.1261 184° South 511 588 40,000  Level Jacksonville Center
09:33AM 30.0447 -82.1031 172° South 515 593 40,000  Level Jacksonville Center
09:34AM 29.9194 -82.0825 172° South 515 593 40,000  Level Jacksonville Center
09:35AM 29.7647 -82.0503 170° South 515 593 40,000 -480 Level Jacksonville Center
09:36AM 29.6247 -82.0231 170° South 515 593 39,100 -1,860 Descending Jacksonville Center
09:37AM 29.4847 -81.9956 170° South 515 593 36,300 -2,100 Descending Jacksonville Center
09:38AM 29.3425 -81.9683 171° South 515 593 35,000 -660 Descending Jacksonville Center
09:39AM 29.2003 -81.9339 168° South 520 598 35,000 -960 Level Jacksonville Center
09:41AM 28.9378 -81.8847 171° South 528 608 32,400 -1,680 Descending Miami Center
09:42AM 28.8011 -81.8586 170° South 522 601 30,200 -2,040 Descending Miami Center
09:43AM 28.6644 -81.8311 170° South 502 578 28,300 -1,560 Descending Miami Center
09:44AM 28.5233 -81.7989 169° South 515 593 27,000 -660 Descending Miami Center
09:45AM 28.3606 -81.7531 166° South 501 577 27,000  Level Miami Center
09:46AM 28.2261 -81.7147 166° South 500 575 27,000 -240 Level Miami Center
09:47AM 28.0919 -81.6772 166° South 499 574 26,600 -780 Descending Miami Center
09:48AM 27.9553 -81.6942 186° South 499 574 25,400 -1,140 Descending Miami Center
09:49AM 27.8031 -81.7378 194° South 498 573 24,300 -1,080 Descending Miami Center
09:50AM 27.6656 -81.7647 190° South 485 558 23,200 -1,020 Descending Miami Center
09:51AM 27.5406 -81.7400 170° South 479 551 22,300 -1,740 Descending Miami Center
09:52AM 27.4142 -81.6806 157° South 475 547 19,700 -2,520 Descending Miami Center
09:53AM 27.3108 -81.6294 156° South 460 529 17,200 -2,820 Descending Miami Center
09:55AM 27.1792 -81.5656 157° South 429 494 13,900 -2,880 Descending Miami Center
09:56AM 27.0767 -81.5150 156° South 405 466 11,300 -1,920 Descending Miami Center
09:57AM 26.9753 -81.4647 156° South 400 460 10,000 -660 Descending Miami Center
09:58AM 26.8644 -81.4094 156° South 402 463 10,000  Level Miami Center
09:59AM 26.7742 -81.3756 161° South 324 373 10,000 -960 Level Miami Center
10:00AM 26.6917 -81.3947 192° South 280 322 8,100 -1,860 Descending Miami Center
10:01AM 26.6153 -81.3997 183° South 278 320 6,300 -1,860 Descending Miami Center
10:02AM 26.5411 -81.4269 198° South 266 306 4,400 -1,620 Descending Miami Center
10:03AM 26.4850 -81.4764 218° Southwest 262 302 3,000 -720 Descending Miami Center
10:04AM 26.4275 -81.5261 218° Southwest 244 281 3,000  Level Miami Center
10:05AM 26.3717 -81.5747 218° Southwest 253 291 3,000  Level Miami Center
10:06AM 26.3192 -81.6200 218° Southwest 240 276 3,000 -540 Level Miami Center
10:07AM 26.2625 -81.6692 218° Southwest 240 276 2,000 -780 Descending Miami Center
10:08AM 26.2181 -81.7072 218° Southwest 206 237 1,500 -540 Descending Miami Center
10:09AM 26.1872 -81.7392 223° Southwest 144 166 900 -660 Descending Miami Center
10:10AM 26.1650 -81.7625 223° Southwest 136 157 200 -720 Descending Miami Center
10:12AM 26.1500 -81.7667 246° West  Level FlightAware Approximate